Terminal Aerodrome Forecast
Issued by NWS

Home | Current Version | Previous Version | Text Only | Print | Product List | Glossary Off
Versions: 1 2 3 4 5 6 7 8 9 10 11 12 13

000
FTUS42 KMHX 202346
TAFISO
TAF
KISO 202346Z 2100/2124 VRB03KT P6SM VCSH BKN090
     FM210300 00000KT 6SM BR SCT150
     FM210500 00000KT 3SM BR SCT005 SCT200
     FM211230 23005KT P6SM BKN090
      AMD LTD TO CLD VIS AND WIND=

USA.gov is the U.S. government's official web portal to all federal, state and local government web resources and services.